N4692F KILM-KROA
Flight info
| Callsign | N4692F |
|---|---|
| Flight time | 0h 42m |
| Altitude | 32000 |
| Route | KILM WOTUP ABVIT RW34 KROA |
| Aircraft | C700/M-V/N |
Departure
| Time | 2026-04-20 20:01 |
|---|---|
| Airport | Wilmington International Airport (KILM) |
Arrival
| Time | 2026-04-20 20:43 |
|---|---|
| Airport | Roanoke–Blacksburg Regional Airport (KROA) |
| Time | Latitude | Longitude | Altitude | Speed | Heading |
|---|---|---|---|---|---|
| 2026-04-20 19:50 | 34.26554 | -77.91018 | 35 ft | 0 kts | 247° |
| 2026-04-20 19:55 | 34.26550 | -77.91028 | 35 ft | 7 kts | 247° |
| 2026-04-20 19:56 | 34.26515 | -77.91046 | 35 ft | 10 kts | 178° |
| 2026-04-20 19:56 | 34.26473 | -77.91033 | 35 ft | 0 kts | 151° |
| 2026-04-20 19:56 | 34.26458 | -77.91024 | 35 ft | 9 kts | 152° |
| 2026-04-20 19:57 | 34.26488 | -77.90926 | 35 ft | 20 kts | 45° |
| 2026-04-20 19:57 | 34.26602 | -77.90777 | 35 ft | 28 kts | 47° |
| 2026-04-20 19:57 | 34.26742 | -77.90588 | 35 ft | 30 kts | 49° |
| 2026-04-20 19:57 | 34.26864 | -77.90412 | 33 ft | 25 kts | 51° |
| 2026-04-20 19:58 | 34.26978 | -77.90236 | 34 ft | 28 kts | 51° |
| 2026-04-20 19:58 | 34.27104 | -77.90049 | 34 ft | 28 kts | 49° |
| 2026-04-20 19:58 | 34.27227 | -77.89876 | 35 ft | 28 kts | 49° |
| 2026-04-20 19:58 | 34.27356 | -77.89702 | 35 ft | 19 kts | 40° |
| 2026-04-20 19:59 | 34.27467 | -77.89653 | 34 ft | 19 kts | 39° |
| 2026-04-20 19:59 | 34.27552 | -77.89532 | 34 ft | 22 kts | 49° |
| 2026-04-20 19:59 | 34.27663 | -77.89379 | 34 ft | 27 kts | 49° |
| 2026-04-20 19:59 | 34.27759 | -77.89216 | 34 ft | 16 kts | 106° |
| 2026-04-20 20:00 | 34.27698 | -77.89134 | 34 ft | 0 kts | 142° |
| 2026-04-20 20:00 | 34.27693 | -77.89130 | 33 ft | 0 kts | 142° |
| 2026-04-20 20:00 | 34.27647 | -77.89091 | 33 ft | 16 kts | 160° |
| 2026-04-20 20:00 | 34.27509 | -77.89241 | 32 ft | 65 kts | 229° |
| 2026-04-20 20:01 | 34.26975 | -77.89951 | 85 ft | 157 kts | 230° |
| 2026-04-20 20:01 | 34.26149 | -77.91077 | 881 ft | 195 kts | 229° |
| 2026-04-20 20:01 | 34.25198 | -77.92353 | 1814 ft | 212 kts | 230° |
| 2026-04-20 20:01 | 34.24188 | -77.93733 | 2704 ft | 225 kts | 234° |
| 2026-04-20 20:02 | 34.23635 | -77.95515 | 3576 ft | 236 kts | 269° |
| 2026-04-20 20:02 | 34.24055 | -77.97453 | 4463 ft | 249 kts | 301° |
| 2026-04-20 20:02 | 34.25194 | -77.98891 | 5796 ft | 233 kts | 319° |
| 2026-04-20 20:02 | 34.26475 | -78.00172 | 7476 ft | 244 kts | 320° |
| 2026-04-20 20:03 | 34.27813 | -78.01483 | 9348 ft | 250 kts | 320° |
| 2026-04-20 20:03 | 34.29108 | -78.02734 | 11163 ft | 250 kts | 319° |
| 2026-04-20 20:03 | 34.30471 | -78.04005 | 13119 ft | 245 kts | 319° |
| 2026-04-20 20:03 | 34.31810 | -78.05180 | 15004 ft | 235 kts | 319° |
| 2026-04-20 20:04 | 34.33119 | -78.06273 | 16822 ft | 223 kts | 324° |
| 2026-04-20 20:04 | 34.34548 | -78.07026 | 18332 ft | 228 kts | 332° |
| 2026-04-20 20:04 | 34.36052 | -78.07655 | 19519 ft | 229 kts | 333° |
| 2026-04-20 20:04 | 34.37566 | -78.08250 | 20724 ft | 227 kts | 333° |
| 2026-04-20 20:05 | 34.39057 | -78.08813 | 21985 ft | 221 kts | 333° |
| 2026-04-20 20:05 | 34.40500 | -78.09336 | 23278 ft | 212 kts | 333° |
| 2026-04-20 20:05 | 34.41880 | -78.09820 | 24466 ft | 205 kts | 333° |
| 2026-04-20 20:05 | 34.43263 | -78.10374 | 25058 ft | 213 kts | 327° |
| 2026-04-20 20:06 | 34.44627 | -78.11150 | 25684 ft | 220 kts | 323° |
| 2026-04-20 20:06 | 34.46014 | -78.12034 | 26336 ft | 231 kts | 323° |
| 2026-04-20 20:06 | 34.47469 | -78.12943 | 26985 ft | 242 kts | 324° |
| 2026-04-20 20:06 | 34.49008 | -78.13885 | 27655 ft | 252 kts | 324° |
| 2026-04-20 20:07 | 34.50607 | -78.14864 | 28344 ft | 262 kts | 324° |
| 2026-04-20 20:07 | 34.52222 | -78.15859 | 28903 ft | 276 kts | 324° |
| 2026-04-20 20:07 | 34.53978 | -78.16942 | 29482 ft | 289 kts | 324° |
| 2026-04-20 20:07 | 34.55809 | -78.18068 | 30077 ft | 301 kts | 325° |
| 2026-04-20 20:08 | 34.57714 | -78.19240 | 30610 ft | 312 kts | 325° |
| 2026-04-20 20:08 | 34.59650 | -78.20434 | 30994 ft | 326 kts | 325° |
| 2026-04-20 20:08 | 34.61727 | -78.21720 | 31254 ft | 344 kts | 325° |
| 2026-04-20 20:08 | 34.63913 | -78.23068 | 31521 ft | 360 kts | 326° |
| 2026-04-20 20:09 | 34.66193 | -78.24472 | 31790 ft | 376 kts | 326° |
| 2026-04-20 20:09 | 34.68542 | -78.25922 | 32079 ft | 391 kts | 326° |
| 2026-04-20 20:09 | 34.71010 | -78.27448 | 32218 ft | 408 kts | 327° |
| 2026-04-20 20:09 | 34.73597 | -78.29052 | 32238 ft | 426 kts | 327° |
| 2026-04-20 20:10 | 34.76258 | -78.30699 | 32237 ft | 443 kts | 327° |
| 2026-04-20 20:10 | 34.81857 | -78.34155 | 32224 ft | 448 kts | 327° |
| 2026-04-20 20:11 | 34.87344 | -78.37564 | 32239 ft | 440 kts | 327° |
| 2026-04-20 20:11 | 34.92773 | -78.40941 | 32221 ft | 442 kts | 327° |
| 2026-04-20 20:12 | 34.98257 | -78.44356 | 32222 ft | 444 kts | 328° |
| 2026-04-20 20:12 | 35.03681 | -78.47733 | 32238 ft | 440 kts | 328° |
| 2026-04-20 20:13 | 35.11866 | -78.52850 | 32236 ft | 443 kts | 328° |
| 2026-04-20 20:13 | 35.17354 | -78.56282 | 32239 ft | 442 kts | 328° |
| 2026-04-20 20:14 | 35.21894 | -78.59128 | 32263 ft | 440 kts | 328° |
| 2026-04-20 20:14 | 35.28202 | -78.63087 | 32221 ft | 435 kts | 328° |
| 2026-04-20 20:15 | 35.33579 | -78.66471 | 32239 ft | 438 kts | 328° |
| 2026-04-20 20:15 | 35.38956 | -78.69850 | 32224 ft | 425 kts | 328° |
| 2026-04-20 20:16 | 35.43333 | -78.72615 | 32220 ft | 426 kts | 328° |
| 2026-04-20 20:16 | 35.48610 | -78.75946 | 32218 ft | 425 kts | 328° |
| 2026-04-20 20:17 | 35.53823 | -78.79242 | 32208 ft | 424 kts | 328° |
| 2026-04-20 20:17 | 35.59063 | -78.82562 | 32212 ft | 424 kts | 328° |
| 2026-04-20 20:18 | 35.64353 | -78.85915 | 32221 ft | 425 kts | 328° |
| 2026-04-20 20:18 | 35.69624 | -78.89264 | 32211 ft | 427 kts | 328° |
| 2026-04-20 20:19 | 35.74893 | -78.92614 | 32234 ft | 426 kts | 328° |
| 2026-04-20 20:19 | 35.80090 | -78.95925 | 32216 ft | 421 kts | 328° |
| 2026-04-20 20:20 | 35.85299 | -78.99250 | 32227 ft | 423 kts | 328° |
| 2026-04-20 20:20 | 35.90400 | -79.02509 | 32225 ft | 425 kts | 328° |
| 2026-04-20 20:21 | 35.95635 | -79.05857 | 32202 ft | 422 kts | 328° |
| 2026-04-20 20:21 | 36.00784 | -79.09156 | 31894 ft | 420 kts | 328° |
| 2026-04-20 20:22 | 36.03378 | -79.10825 | 31157 ft | 417 kts | 328° |
| 2026-04-20 20:22 | 36.05937 | -79.12463 | 30333 ft | 412 kts | 328° |
| 2026-04-20 20:22 | 36.08463 | -79.14083 | 29322 ft | 409 kts | 328° |
| 2026-04-20 20:22 | 36.10999 | -79.15719 | 28336 ft | 414 kts | 328° |
| 2026-04-20 20:23 | 36.13562 | -79.17370 | 27401 ft | 413 kts | 328° |
| 2026-04-20 20:23 | 36.16078 | -79.18983 | 26486 ft | 401 kts | 328° |
| 2026-04-20 20:23 | 36.18521 | -79.20553 | 25616 ft | 390 kts | 328° |
| 2026-04-20 20:23 | 36.20911 | -79.22099 | 24756 ft | 385 kts | 328° |
| 2026-04-20 20:24 | 36.23282 | -79.23635 | 23923 ft | 384 kts | 328° |
| 2026-04-20 20:24 | 36.25649 | -79.25162 | 22968 ft | 383 kts | 328° |
| 2026-04-20 20:24 | 36.28008 | -79.26683 | 22051 ft | 379 kts | 328° |
| 2026-04-20 20:24 | 36.30322 | -79.28178 | 21136 ft | 373 kts | 328° |
| 2026-04-20 20:25 | 36.32576 | -79.29637 | 20253 ft | 368 kts | 328° |
| 2026-04-20 20:25 | 36.34829 | -79.31098 | 19390 ft | 363 kts | 328° |
| 2026-04-20 20:25 | 36.37063 | -79.32546 | 18555 ft | 361 kts | 328° |
| 2026-04-20 20:25 | 36.39285 | -79.33987 | 17606 ft | 360 kts | 328° |
| 2026-04-20 20:26 | 36.41494 | -79.35419 | 16678 ft | 357 kts | 329° |
| 2026-04-20 20:26 | 36.43681 | -79.36838 | 15780 ft | 353 kts | 329° |
| 2026-04-20 20:26 | 36.45846 | -79.38245 | 14907 ft | 349 kts | 329° |
| 2026-04-20 20:26 | 36.47991 | -79.39639 | 14059 ft | 346 kts | 329° |
| 2026-04-20 20:27 | 36.50115 | -79.41020 | 13112 ft | 343 kts | 329° |
| 2026-04-20 20:27 | 36.52228 | -79.42394 | 12211 ft | 342 kts | 329° |
| 2026-04-20 20:27 | 36.54320 | -79.43760 | 11307 ft | 338 kts | 329° |
| 2026-04-20 20:27 | 36.56400 | -79.45114 | 10431 ft | 336 kts | 329° |
| 2026-04-20 20:28 | 36.58460 | -79.46453 | 9776 ft | 324 kts | 328° |
| 2026-04-20 20:28 | 36.60331 | -79.47665 | 9774 ft | 290 kts | 328° |
| 2026-04-20 20:28 | 36.62028 | -79.48772 | 9754 ft | 263 kts | 328° |
| 2026-04-20 20:28 | 36.63613 | -79.49813 | 9345 ft | 253 kts | 328° |
| 2026-04-20 20:29 | 36.65147 | -79.50820 | 8948 ft | 246 kts | 328° |
| 2026-04-20 20:29 | 36.66648 | -79.51802 | 8546 ft | 242 kts | 328° |
| 2026-04-20 20:29 | 36.68140 | -79.52778 | 8148 ft | 243 kts | 328° |
| 2026-04-20 20:29 | 36.69639 | -79.53761 | 7748 ft | 244 kts | 328° |
| 2026-04-20 20:30 | 36.71149 | -79.54749 | 7365 ft | 245 kts | 328° |
| 2026-04-20 20:30 | 36.72660 | -79.55737 | 7000 ft | 245 kts | 328° |
| 2026-04-20 20:30 | 36.74168 | -79.56725 | 6631 ft | 244 kts | 328° |
| 2026-04-20 20:30 | 36.75672 | -79.57710 | 6262 ft | 244 kts | 329° |
| 2026-04-20 20:31 | 36.77169 | -79.58692 | 5911 ft | 242 kts | 329° |
| 2026-04-20 20:31 | 36.78628 | -79.59646 | 5871 ft | 234 kts | 329° |
| 2026-04-20 20:31 | 36.80072 | -79.60595 | 5870 ft | 238 kts | 329° |
| 2026-04-20 20:31 | 36.81553 | -79.61572 | 5879 ft | 243 kts | 329° |
| 2026-04-20 20:32 | 36.83049 | -79.62551 | 5887 ft | 242 kts | 329° |
| 2026-04-20 20:32 | 36.84531 | -79.63524 | 5888 ft | 240 kts | 329° |
| 2026-04-20 20:32 | 36.85888 | -79.64415 | 5878 ft | 240 kts | 329° |
| 2026-04-20 20:32 | 36.87369 | -79.65389 | 5884 ft | 243 kts | 329° |
| 2026-04-20 20:33 | 36.88867 | -79.66376 | 5890 ft | 242 kts | 329° |
| 2026-04-20 20:33 | 36.90350 | -79.67353 | 5885 ft | 240 kts | 329° |
| 2026-04-20 20:33 | 36.91838 | -79.68332 | 5878 ft | 244 kts | 329° |
| 2026-04-20 20:33 | 36.93343 | -79.69324 | 5891 ft | 244 kts | 329° |
| 2026-04-20 20:34 | 36.94831 | -79.70302 | 5878 ft | 240 kts | 329° |
| 2026-04-20 20:34 | 36.96303 | -79.71274 | 5876 ft | 240 kts | 329° |
| 2026-04-20 20:34 | 36.97763 | -79.72241 | 5890 ft | 241 kts | 330° |
| 2026-04-20 20:34 | 36.99254 | -79.73223 | 5877 ft | 241 kts | 329° |
| 2026-04-20 20:35 | 37.00736 | -79.74198 | 5891 ft | 240 kts | 329° |
| 2026-04-20 20:35 | 37.02215 | -79.75177 | 5878 ft | 241 kts | 329° |
| 2026-04-20 20:35 | 37.03698 | -79.76158 | 5894 ft | 243 kts | 329° |
| 2026-04-20 20:35 | 37.05189 | -79.77146 | 5886 ft | 241 kts | 330° |
| 2026-04-20 20:36 | 37.06664 | -79.78120 | 5883 ft | 239 kts | 330° |
| 2026-04-20 20:36 | 37.08146 | -79.79098 | 5888 ft | 241 kts | 330° |
| 2026-04-20 20:36 | 37.09626 | -79.80080 | 5891 ft | 240 kts | 330° |
| 2026-04-20 20:36 | 37.11103 | -79.81058 | 5889 ft | 240 kts | 330° |
| 2026-04-20 20:37 | 37.12577 | -79.82036 | 5889 ft | 239 kts | 329° |
| 2026-04-20 20:37 | 37.14044 | -79.83009 | 5889 ft | 238 kts | 330° |
| 2026-04-20 20:37 | 37.15501 | -79.83971 | 5876 ft | 232 kts | 329° |
| 2026-04-20 20:37 | 37.16905 | -79.84902 | 5528 ft | 223 kts | 329° |
| 2026-04-20 20:38 | 37.18242 | -79.85789 | 5214 ft | 212 kts | 330° |
| 2026-04-20 20:38 | 37.19499 | -79.86616 | 4956 ft | 193 kts | 329° |
| 2026-04-20 20:38 | 37.20626 | -79.87376 | 4630 ft | 176 kts | 328° |
| 2026-04-20 20:38 | 37.21658 | -79.88070 | 4362 ft | 161 kts | 326° |
| 2026-04-20 20:39 | 37.22481 | -79.88829 | 4225 ft | 125 kts | 317° |
| 2026-04-20 20:39 | 37.22966 | -79.89337 | 4047 ft | 120 kts | 318° |
| 2026-04-20 20:39 | 37.23198 | -79.89570 | 3978 ft | 120 kts | 318° |
| 2026-04-20 20:40 | 37.23822 | -79.90230 | 3769 ft | 116 kts | 315° |
| 2026-04-20 20:40 | 37.24423 | -79.90867 | 3575 ft | 112 kts | 318° |
| 2026-04-20 20:40 | 37.25046 | -79.91489 | 3392 ft | 115 kts | 318° |
| 2026-04-20 20:40 | 37.25664 | -79.92117 | 3203 ft | 111 kts | 317° |
| 2026-04-20 20:41 | 37.26286 | -79.92712 | 2917 ft | 115 kts | 320° |
| 2026-04-20 20:41 | 37.26929 | -79.93299 | 2648 ft | 113 kts | 321° |
| 2026-04-20 20:41 | 37.27580 | -79.93872 | 2415 ft | 117 kts | 323° |
| 2026-04-20 20:41 | 37.28264 | -79.94389 | 2231 ft | 112 kts | 323° |
| 2026-04-20 20:42 | 37.28906 | -79.94935 | 1954 ft | 115 kts | 322° |
| 2026-04-20 20:42 | 37.29561 | -79.95477 | 1748 ft | 112 kts | 321° |
| 2026-04-20 20:42 | 37.30218 | -79.96013 | 1522 ft | 116 kts | 324° |
| 2026-04-20 20:42 | 37.30896 | -79.96544 | 1344 ft | 114 kts | 324° |
| 2026-04-20 20:43 | 37.31574 | -79.97079 | 1197 ft | 114 kts | 326° |
| 2026-04-20 20:43 | 37.32130 | -79.97517 | 1176 ft | 56 kts | 328° |
| 2026-04-20 20:43 | 37.32237 | -79.97587 | 1175 ft | 11 kts | 346° |
| 2026-04-20 20:43 | 37.32294 | -79.97557 | 1176 ft | 10 kts | 54° |
| 2026-04-20 20:44 | 37.32307 | -79.97533 | 1175 ft | 0 kts | 59° |
| 2026-04-20 20:44 | 37.31053 | -79.96671 | 1300 ft | 115 kts | 324° |
| 2026-04-20 20:45 | 37.31747 | -79.97214 | 1181 ft | 105 kts | 326° |
| 2026-04-20 20:45 | 37.32079 | -79.97476 | 1176 ft | 49 kts | 327° |
| 2026-04-20 20:46 | 37.31185 | -79.96776 | 1269 ft | 115 kts | 324° |
| 2026-04-20 20:46 | 37.31183 | -79.96774 | 1270 ft | 115 kts | 324° |
| 2026-04-20 20:46 | 37.31751 | -79.97217 | 1177 ft | 104 kts | 326° |
| 2026-04-20 20:46 | 37.32166 | -79.97544 | 1176 ft | 34 kts | 328° |
| 2026-04-20 20:47 | 37.32244 | -79.97588 | 1173 ft | 11 kts | 352° |
| 2026-04-20 20:47 | 37.32307 | -79.97533 | 1174 ft | 0 kts | 59° |